createdAt,value
2023-03-23T15:58:31.743Z,14.43
2023-03-23T16:04:01.989Z,14.36
2023-03-23T16:09:06.784Z,14.20
2023-03-23T16:14:09.634Z,14.00
2023-03-23T16:19:13.948Z,13.89
2023-03-23T16:24:16.417Z,13.88
2023-03-23T16:29:37.049Z,13.82
2023-03-23T16:34:41.272Z,13.87
2023-03-23T16:39:43.603Z,13.62
2023-03-23T16:44:46.101Z,13.75
2023-03-23T16:49:49.103Z,13.65
2023-03-23T16:54:51.668Z,13.59
2023-03-23T16:59:54.240Z,13.57
2023-03-23T17:04:57.035Z,13.52
2023-03-23T17:10:00.671Z,13.40
2023-03-23T17:15:04.012Z,13.24
2023-03-23T17:20:07.902Z,13.31
2023-03-23T17:25:10.893Z,13.04
2023-03-23T17:30:14.412Z,13.18
2023-03-23T17:35:16.815Z,13.09
2023-03-23T17:40:19.311Z,12.98
2023-03-23T17:45:21.803Z,12.99
2023-03-23T17:50:24.685Z,12.78
2023-03-23T17:55:27.446Z,12.79
2023-03-23T18:00:30.230Z,12.69
2023-03-23T18:05:32.572Z,12.61
2023-03-23T18:10:37.749Z,12.80
2023-03-23T18:15:46.690Z,12.47
2023-03-23T18:21:01.102Z,12.32
2023-03-23T18:26:06.300Z,12.70
2023-03-23T18:31:13.256Z,12.81
2023-03-23T18:36:18.980Z,12.84
2023-03-23T18:41:21.778Z,12.84
2023-03-23T18:46:24.336Z,12.70
2023-03-23T18:51:27.021Z,12.68
2023-03-23T18:56:29.584Z,12.62
2023-03-23T19:01:32.069Z,12.60
2023-03-23T19:06:35.255Z,12.25
2023-03-23T19:11:37.871Z,12.36
2023-03-23T19:16:42.232Z,12.03
2023-03-23T19:21:47.003Z,12.23
2023-03-23T19:26:49.740Z,12.15
2023-03-23T19:31:53.756Z,12.06
2023-03-23T19:37:04.139Z,11.85
2023-03-23T19:42:08.924Z,11.89
2023-03-23T19:47:11.703Z,11.75
2023-03-23T19:52:16.261Z,11.44
2023-03-23T19:57:21.234Z,11.67
2023-03-23T20:02:23.948Z,11.59
2023-03-23T20:07:26.980Z,11.59
2023-03-23T20:12:29.439Z,11.57
2023-03-23T20:17:33.930Z,11.36
2023-03-23T20:22:37.982Z,11.39
2023-03-23T20:27:41.017Z,11.39
2023-03-23T20:32:46.649Z,11.38
2023-03-23T20:37:50.829Z,11.43
2023-03-23T20:42:54.799Z,11.25
2023-03-23T20:47:57.179Z,11.11
2023-03-23T20:52:59.705Z,11.10
2023-03-23T20:58:02.725Z,11.11
2023-03-23T21:03:05.676Z,11.03
2023-03-23T21:08:11.569Z,10.78
2023-03-23T21:13:15.202Z,10.82
2023-03-23T21:18:17.992Z,10.81
2023-03-23T21:23:22.500Z,10.68
2023-03-23T21:28:25.779Z,10.68
2023-03-23T21:33:29.820Z,10.59
2023-03-23T21:38:33.273Z,10.44
2023-03-23T21:43:36.913Z,10.45
2023-03-23T21:48:41.623Z,10.44
2023-03-23T21:53:44.668Z,10.49
2023-03-23T21:58:47.579Z,10.47
2023-03-23T22:03:51.285Z,10.48
2023-03-23T22:08:55.244Z,10.40
2023-03-23T22:14:11.130Z,10.33
2023-03-23T22:19:13.762Z,10.26
2023-03-23T22:24:18.962Z,10.25
2023-03-23T22:29:23.158Z,10.24
2023-03-23T22:34:26.161Z,10.24
2023-03-23T22:39:30.088Z,10.19
2023-03-23T22:44:34.021Z,10.09
2023-03-23T22:49:36.991Z,10.12
2023-03-23T22:54:39.353Z,10.18
2023-03-23T22:59:41.712Z,10.12
2023-03-23T23:04:45.110Z,10.17
2023-03-23T23:09:48.577Z,10.12
2023-03-23T23:14:51.595Z,10.03
2023-03-23T23:19:54.488Z,9.87
2023-03-23T23:24:57.052Z,9.86
2023-03-23T23:30:00.988Z,9.81
2023-03-23T23:35:06.642Z,9.80
2023-03-23T23:40:09.671Z,9.87
2023-03-23T23:45:13.002Z,9.82
2023-03-23T23:50:17.678Z,9.76
2023-03-23T23:55:21.577Z,9.81
